Chester, Arkansas
Current Conditions -  °F | °C
As of 11:53 AM on Thursday 23 Oct 2014 (Local Time) from KFYV Reporting Station
Light Rain Light Rain  
Wind Chill: 57°   Ceiling: 9000
Heat Index: 57°   Visibility: 10mi
Dew Point: 52°   Wind: 3mph
Humidity: 83%   Direction: 260°W
Pressure: 30.21"   Gusts: NA
Location:  35.68°N, 94.18°W
Report Text: KFYV 231653Z 26003KT 10SM -RA FEW070 BKN090 OVC110 14/11 A3021 RMK AO2 SLP226 P0001 T01390111
Loading
Personal Weather Stations






























Interactive Weather Map
Tropical Storm Tracking
New forecast layout! Learn more

10-Day Weather Forecast

Advertisements
Track Severe Weather on mobile